Time;durP1;ratioP1;P1;durP2;ratioP2;P2;SDS_P1;SDS_P2;PMS_P1;PMS_P2;Temp;Humidity;BMP_temperature;BMP_pressure;BME280_temperature;BME280_humidity;BME280_pressure;Samples;Min_cycle;Max_cycle;Signal;HPM_P1;HPM_P2
2021/01/30 00:00:34;;;;;;;20.50;9.57;;;;;;;-3.27;71.74;97801.29;128188;1107;22867;-62
2021/01/30 00:03:03;;;;;;;21.37;9.93;;;;;;;-3.29;71.35;97803.34;128292;1108;22966;-62
2021/01/30 00:05:31;;;;;;;23.00;10.15;;;;;;;-3.32;71.78;97822.39;128158;1108;22776;-62
2021/01/30 00:08:05;;;;;;;20.33;9.50;;;;;;;-3.32;71.50;97816.28;128308;1108;23022;-62
2021/01/30 00:10:32;;;;;;;18.57;9.83;;;;;;;-3.34;71.52;97821.00;128171;1107;23079;-62
2021/01/30 00:13:01;;;;;;;19.10;9.93;;;;;;;-3.34;71.57;97824.48;128357;1107;23464;-62
2021/01/30 00:15:29;;;;;;;20.43;9.13;;;;;;;-3.34;71.84;97829.80;128317;1107;22823;-62
2021/01/30 00:17:57;;;;;;;19.30;9.37;;;;;;;-3.34;71.71;97834.31;128230;1107;22806;-62
2021/01/30 00:20:27;;;;;;;21.63;9.17;;;;;;;-3.35;72.20;97830.83;128309;1108;23565;-62
2021/01/30 00:22:56;;;;;;;17.00;8.67;;;;;;;-3.36;72.54;97833.70;128175;1107;22964;-62
2021/01/30 00:25:25;;;;;;;17.07;7.67;;;;;;;-3.37;72.22;97840.05;128318;1107;23010;-62
2021/01/30 00:27:54;;;;;;;18.67;8.67;;;;;;;-3.39;72.76;97840.26;128276;1106;22855;-62
2021/01/30 00:30:22;;;;;;;15.50;8.33;;;;;;;-3.38;72.25;97836.57;128358;1107;22962;-62
2021/01/30 00:32:50;;;;;;;17.30;8.57;;;;;;;-3.37;72.12;97837.39;128251;1108;22920;-62
2021/01/30 00:35:19;;;;;;;18.93;8.00;;;;;;;-3.36;72.78;97844.35;128279;1107;23055;-63
2021/01/30 00:37:47;;;;;;;12.03;6.77;;;;;;;-3.36;72.16;97842.51;128292;1108;22913;-62
2021/01/30 00:40:15;;;;;;;17.23;8.67;;;;;;;-3.36;72.78;97837.18;128188;1108;22960;-63
2021/01/30 00:42:42;;;;;;;14.13;7.90;;;;;;;-3.34;72.54;97837.80;128191;1107;22828;-62
2021/01/30 00:45:11;;;;;;;16.23;7.43;;;;;;;-3.32;72.12;97846.36;128278;1108;22842;-63
2021/01/30 00:47:39;;;;;;;15.67;8.40;;;;;;;-3.31;73.16;97852.50;128188;1107;22850;-62
2021/01/30 00:50:06;;;;;;;19.73;8.20;;;;;;;-3.30;72.07;97854.96;128339;1109;22929;-62
2021/01/30 00:52:35;;;;;;;24.60;10.77;;;;;;;-3.29;72.14;97847.79;128234;1107;22999;-62
2021/01/30 00:55:23;;;;;;;21.17;9.33;;;;;;;-3.31;72.02;97845.33;128329;1108;22890;-62
2021/01/30 00:57:53;;;;;;;19.33;8.93;;;;;;;-3.30;71.97;97854.14;128166;1108;22986;-62
2021/01/30 01:00:25;;;;;;;16.93;8.20;;;;;;;-3.30;72.54;97862.13;128316;1108;22824;-62
2021/01/30 01:02:55;;;;;;;17.17;8.50;;;;;;;-3.28;71.48;97860.08;128142;1108;22893;-62
2021/01/30 01:05:24;;;;;;;14.37;7.63;;;;;;;-3.31;71.36;97863.16;128312;1108;23594;-62
2021/01/30 01:07:53;;;;;;;17.77;8.60;;;;;;;-3.33;71.18;97858.07;128148;1107;22858;-63
2021/01/30 01:10:21;;;;;;;17.53;8.30;;;;;;;-3.38;71.64;97863.20;128336;1107;23405;-62
2021/01/30 01:12:49;;;;;;;24.27;11.37;;;;;;;-3.41;71.83;97862.79;128273;1107;22967;-62
2021/01/30 01:15:17;;;;;;;25.17;13.13;;;;;;;-3.48;71.30;97868.15;128308;1108;22832;-62
2021/01/30 01:17:45;;;;;;;25.63;12.17;;;;;;;-3.51;70.68;97871.22;128314;1107;22845;-62
2021/01/30 01:20:14;;;;;;;31.40;12.30;;;;;;;-3.56;71.23;97877.16;128203;1108;22834;-62
2021/01/30 01:22:42;;;;;;;25.80;12.13;;;;;;;-3.61;71.13;97871.64;128378;1107;23093;-62
2021/01/30 01:25:10;;;;;;;21.23;10.60;;;;;;;-3.67;71.30;97883.13;128124;1108;22920;-60
2021/01/30 01:27:38;;;;;;;17.93;9.43;;;;;;;-3.73;71.23;97875.14;128278;1107;22910;-63
2021/01/30 01:30:08;;;;;;;19.70;8.70;;;;;;;-3.79;70.47;97873.33;128165;1107;24064;-63
2021/01/30 01:32:35;;;;;;;16.17;7.73;;;;;;;-3.85;71.04;97879.47;128284;1107;22883;-63
2021/01/30 01:35:04;;;;;;;18.00;9.13;;;;;;;-3.90;70.71;97876.63;128171;1108;22826;-63
2021/01/30 01:37:32;;;;;;;15.00;7.07;;;;;;;-3.96;71.60;97879.08;128340;1107;22801;-63
2021/01/30 01:39:59;;;;;;;11.20;6.47;;;;;;;-4.13;70.96;97861.08;128178;1108;24745;-63
2021/01/30 01:42:27;;;;;;;15.53;6.57;;;;;;;-4.06;70.52;97881.34;128350;1107;22990;-63
2021/01/30 01:44:55;;;;;;;10.20;6.70;;;;;;;-4.09;70.62;97880.92;128220;1107;23023;-63
2021/01/30 01:47:39;;;;;;;16.97;7.90;;;;;;;-4.14;71.18;97870.89;128247;1107;23045;-63
2021/01/30 01:50:28;;;;;;;17.47;7.60;;;;;;;-4.19;70.69;97877.87;128202;1108;23010;-63
2021/01/30 01:53:00;;;;;;;12.13;6.90;;;;;;;-4.23;71.62;97879.29;128314;1108;22846;-64
2021/01/30 01:55:28;;;;;;;15.47;8.23;;;;;;;-4.27;72.08;97881.53;127751;1107;22787;-63
2021/01/30 01:57:56;;;;;;;12.80;7.57;;;;;;;-4.32;70.71;97884.79;124518;1109;23118;-62
2021/01/30 02:00:24;;;;;;;16.47;8.20;;;;;;;-4.35;71.44;97887.88;128175;1107;22878;-64
2021/01/30 02:05:34;;;;;;;17.93;8.33;;;;;;;-4.43;71.18;97881.92;124542;1108;24109;-61
2021/01/30 02:08:04;;;;;;;18.07;10.27;;;;;;;-4.48;71.45;97885.21;128296;1108;22901;-62
2021/01/30 02:10:38;;;;;;;26.60;11.70;;;;;;;-4.55;71.46;97887.02;128189;1109;22894;-63
2021/01/30 02:13:14;;;;;;;34.37;13.07;;;;;;;-4.60;72.18;97878.01;128298;1108;23516;-63
2021/01/30 02:15:42;;;;;;;26.80;11.17;;;;;;;-4.66;71.06;97871.68;128211;1108;23011;-62
2021/01/30 02:18:24;;;;;;;25.23;10.60;;;;;;;-4.70;71.07;97873.09;128365;1107;22897;-63
2021/01/30 02:21:27;;;;;;;25.50;11.97;;;;;;;-4.77;71.73;97878.41;128205;1107;23468;-63
2021/01/30 02:24:53;;;;;;;20.20;9.60;;;;;;;-4.85;70.35;97883.89;128240;1112;22855;-62
2021/01/30 02:27:48;;;;;;;20.97;9.87;;;;;;;-4.92;71.59;97864.48;127681;1115;22942;-63
2021/01/30 02:30:34;;;;;;;17.83;9.17;;;;;;;-5.00;71.67;97852.19;127901;1115;23217;-62
2021/01/30 02:33:11;;;;;;;14.43;8.10;;;;;;;-5.08;70.77;97862.18;127758;1114;22876;-63
2021/01/30 02:36:05;;;;;;;16.30;8.70;;;;;;;-5.16;70.86;97867.65;127044;1114;23057;-63
2021/01/30 02:38:32;;;;;;;16.80;8.50;;;;;;;-5.22;70.53;97861.31;123805;1115;23081;-61
2021/01/30 02:41:09;;;;;;;16.73;7.73;;;;;;;-5.24;71.49;97859.87;127840;1115;22892;-62
2021/01/30 02:43:39;;;;;;;17.85;8.83;;;;;;;-5.29;71.01;97857.80;127784;1114;24671;-62
2021/01/30 02:46:11;;;;;;;15.90;8.00;;;;;;;-5.34;70.35;97842.46;127936;1115;23671;-62
2021/01/30 02:48:41;;;;;;;12.33;7.63;;;;;;;-5.37;70.71;97850.03;127777;1115;22878;-62
2021/01/30 02:51:11;;;;;;;12.87;8.13;;;;;;;-5.46;70.02;97848.54;127961;1115;22876;-62
2021/01/30 02:53:47;;;;;;;13.63;7.50;;;;;;;-5.58;69.35;97847.46;127767;1115;25745;-62
2021/01/30 02:56:14;;;;;;;54.93;23.37;;;;;;;-5.72;70.52;97859.84;127933;1114;24258;-62
2021/01/30 02:58:51;;;;;;;61.27;25.43;;;;;;;-5.79;71.68;97851.05;127807;1114;22891;-62
2021/01/30 03:01:19;;;;;;;52.00;22.00;;;;;;;-5.82;71.02;97854.08;128091;1111;25062;-62
2021/01/30 03:03:46;;;;;;;33.97;16.17;;;;;;;-5.86;71.75;97853.64;128150;1108;23048;-62
2021/01/30 03:06:41;;;;;;;39.20;16.50;;;;;;;-5.89;71.50;97856.70;126595;1108;26418;-61
2021/01/30 03:09:17;;;;;;;28.45;14.15;;;;;;;-5.96;70.51;97855.05;124437;1108;23116;-62
2021/01/30 03:12:01;;;;;;;29.00;14.00;;;;;;;-6.06;71.12;97853.53;124556;1107;23213;-62
2021/01/30 03:14:31;;;;;;;30.97;15.17;;;;;;;-6.14;71.04;97856.34;128177;1109;22847;-63
2021/01/30 03:16:59;;;;;;;44.13;18.90;;;;;;;-6.20;70.80;97857.10;128277;1108;23600;-63
2021/01/30 03:19:29;;;;;;;37.77;16.93;;;;;;;-6.23;72.13;97851.39;128223;1109;22939;-63
2021/01/30 03:21:59;;;;;;;34.97;14.37;;;;;;;-6.22;71.89;97848.55;128262;1108;23779;-63
2021/01/30 03:24:27;;;;;;;25.23;12.73;;;;;;;-6.21;72.31;97844.89;128162;1108;22860;-63
2021/01/30 03:26:54;;;;;;;27.03;12.33;;;;;;;-6.18;71.60;97843.66;128304;1108;23590;-63
2021/01/30 03:29:22;;;;;;;25.00;12.23;;;;;;;-6.19;72.64;97837.54;128148;1109;23046;-63
2021/01/30 03:31:49;;;;;;;20.70;11.10;;;;;;;-6.19;71.91;97837.54;128309;1109;22989;-63
2021/01/30 03:34:17;;;;;;;25.47;13.03;;;;;;;-6.25;71.75;97835.68;128237;1108;22840;-63
2021/01/30 03:36:44;;;;;;;24.13;11.50;;;;;;;-6.29;70.93;97845.02;125820;1109;23488;-62
2021/01/30 03:39:14;;;;;;;21.13;11.20;;;;;;;-6.35;71.20;97835.20;124508;1109;26625;-62
2021/01/30 03:41:42;;;;;;;24.47;13.47;;;;;;;-6.36;71.49;97835.39;128253;1109;22885;-63
2021/01/30 03:44:11;;;;;;;27.23;13.83;;;;;;;-6.38;72.63;97835.58;128165;1109;22900;-63
2021/01/30 03:46:39;;;;;;;33.17;15.03;;;;;;;-6.37;72.03;97828.45;128293;1108;23059;-61
2021/01/30 03:49:06;;;;;;;25.67;14.10;;;;;;;-6.39;72.23;97833.95;128150;1108;22922;-61
2021/01/30 03:51:34;;;;;;;25.27;13.10;;;;;;;-6.49;71.58;97844.84;128320;1108;22915;-60
2021/01/30 03:54:02;;;;;;;33.37;15.20;;;;;;;-6.56;72.12;97843.17;128329;1107;22840;-61
2021/01/30 03:56:29;;;;;;;31.03;15.07;;;;;;;-6.56;71.91;97845.81;128307;1107;22846;-61
2021/01/30 03:58:57;;;;;;;30.10;14.80;;;;;;;-6.55;72.02;97840.33;128336;1108;23698;-61
2021/01/30 04:01:33;;;;;;;28.87;14.47;;;;;;;-6.51;73.04;97846.08;128175;1108;22844;-62
2021/01/30 04:04:05;;;;;;;29.83;12.10;;;;;;;-6.50;72.34;97848.53;128288;1108;22886;-62
2021/01/30 04:06:32;;;;;;;26.90;12.97;;;;;;;-6.48;72.87;97840.38;126058;1108;23219;-57
2021/01/30 04:09:01;;;;;;;24.10;11.30;;;;;;;-6.44;73.52;97841.64;127286;1108;23088;-56
2021/01/30 04:11:29;;;;;;;24.27;11.80;;;;;;;-6.38;72.84;97840.06;128219;1108;22862;-58
2021/01/30 04:13:57;;;;;;;26.17;13.33;;;;;;;-6.35;73.19;97842.33;128256;1108;23054;-59
2021/01/30 04:16:25;;;;;;;28.00;12.67;;;;;;;-6.34;72.55;97834.16;128199;1108;22906;-58
2021/01/30 04:18:52;;;;;;;29.60;15.50;;;;;;;-6.30;73.92;97834.61;128297;1109;22848;-58
2021/01/30 04:21:20;;;;;;;39.80;17.33;;;;;;;-6.26;73.46;97830.57;128160;1109;23614;-59
2021/01/30 04:23:48;;;;;;;33.87;16.63;;;;;;;-6.22;74.02;97837.95;128257;1108;23035;-58
2021/01/30 04:26:16;;;;;;;34.93;17.27;;;;;;;-6.15;73.52;97837.98;128135;1109;23003;-58
2021/01/30 04:28:43;;;;;;;33.77;17.17;;;;;;;-6.12;72.79;97840.25;128307;1108;25263;-58
2021/01/30 04:31:11;;;;;;;42.63;19.57;;;;;;;-6.10;73.23;97844.35;128148;1109;24143;-58
2021/01/30 04:33:38;;;;;;;48.33;21.03;;;;;;;-6.05;72.62;97846.41;128328;1109;22839;-59
2021/01/30 04:36:06;;;;;;;44.03;19.43;;;;;;;-6.03;72.53;97843.56;126739;1108;23978;-57
2021/01/30 04:38:33;;;;;;;54.55;23.35;;;;;;;-6.02;72.75;97848.67;124517;1108;27481;-58
2021/01/30 04:41:25;;;;;;;43.65;22.10;;;;;;;-5.98;73.21;97846.45;124404;1109;23171;-57
2021/01/30 04:44:14;;;;;;;45.07;19.63;;;;;;;-5.98;73.12;97838.50;128268;1108;22895;-60
2021/01/30 04:46:50;;;;;;;47.60;19.97;;;;;;;-5.96;72.94;97850.56;128204;1107;22982;-60
2021/01/30 04:49:29;;;;;;;41.07;18.67;;;;;;;-6.01;72.31;97850.31;128338;1107;22865;-60
2021/01/30 04:52:24;;;;;;;41.77;18.53;;;;;;;-6.09;72.54;97853.13;128194;1107;23493;-60
2021/01/30 04:55:27;;;;;;;37.20;17.35;;;;;;;-6.14;72.68;97853.70;128288;1109;23957;-60
2021/01/30 04:58:05;;;;;;;41.87;19.50;;;;;;;-6.15;72.87;97844.10;128125;1108;22876;-60
2021/01/30 05:01:13;;;;;;;44.03;19.17;;;;;;;-6.14;72.46;97847.57;128325;1108;22975;-60
2021/01/30 05:03:50;;;;;;;47.00;19.03;;;;;;;-6.17;72.91;97835.52;128223;1107;23010;-60
2021/01/30 05:06:32;;;;;;;46.40;20.45;;;;;;;-6.15;73.23;97837.98;128327;1108;22971;-60
2021/01/30 05:09:25;;;;;;;42.67;19.47;;;;;;;-6.15;72.74;97844.10;128233;1107;22834;-60
2021/01/30 05:11:57;;;;;;;46.40;20.20;;;;;;;-6.16;71.75;97845.11;128340;1108;23020;-59
2021/01/30 05:14:25;;;;;;;39.03;17.50;;;;;;;-6.19;72.21;97842.84;128227;1105;22831;-60
2021/01/30 05:17:02;;;;;;;41.03;20.33;;;;;;;-6.19;71.98;97850.80;128317;1108;22857;-57
2021/01/30 05:19:36;;;;;;;42.67;20.15;;;;;;;-6.22;72.12;97848.55;128220;1108;22860;-58
2021/01/30 05:22:03;;;;;;;44.10;20.27;;;;;;;-6.26;72.58;97849.12;128312;1108;22980;-60
2021/01/30 05:24:34;;;;;;;40.23;18.87;;;;;;;-6.29;71.69;97860.09;128170;1106;23769;-58
2021/01/30 05:27:31;;;;;;;48.83;20.90;;;;;;;-6.32;72.75;97861.30;128313;1108;22835;-58
2021/01/30 05:30:45;;;;;;;47.40;24.23;;;;;;;-6.34;73.29;97854.55;128188;1108;23061;-59
2021/01/30 05:33:36;;;;;;;63.60;32.03;;;;;;;-6.29;73.43;97863.56;128036;1112;23032;-58
2021/01/30 05:36:12;;;;;;;83.60;37.93;;;;;;;-6.23;73.52;97862.81;128198;1109;22835;-58
2021/01/30 05:38:47;;;;;;;70.77;32.67;;;;;;;-6.14;73.62;97864.30;128193;1108;22898;-59
2021/01/30 05:41:35;;;;;;;70.97;29.73;;;;;;;-6.09;74.44;97864.55;128276;1109;22889;-58
2021/01/30 05:44:17;;;;;;;61.83;24.25;;;;;;;-6.03;74.33;97852.33;128108;1112;22998;-58
2021/01/30 05:46:45;;;;;;;59.57;24.40;;;;;;;-5.96;73.15;97855.86;128292;1110;23639;-59
2021/01/30 05:49:17;;;;;;;67.00;26.60;;;;;;;-5.92;73.90;97859.77;128193;1109;22949;-59
2021/01/30 05:52:00;;;;;;;69.17;26.60;;;;;;;-5.96;72.34;97866.47;128304;1111;22928;-59
2021/01/30 05:54:27;;;;;;;74.40;30.50;;;;;;;-5.95;72.30;97873.41;128014;1109;22894;-60
2021/01/30 05:56:55;;;;;;;82.20;35.33;;;;;;;-5.95;72.22;97881.36;128255;1109;23690;-60
2021/01/30 05:59:24;;;;;;;130.40;50.33;;;;;;;-5.95;72.49;97884.02;128180;1108;23011;-60
2021/01/30 06:02:11;;;;;;;139.30;56.43;;;;;;;-5.99;71.93;97874.80;128223;1108;22866;-59
2021/01/30 06:04:39;;;;;;;127.25;49.58;;;;;;;-6.00;72.52;97874.98;128175;1108;22917;-60
2021/01/30 06:07:32;;;;;;;109.67;44.50;;;;;;;-5.96;72.84;97881.55;128243;1109;23700;-59
2021/01/30 06:10:19;;;;;;;90.90;34.53;;;;;;;-5.93;73.38;97881.99;128135;1107;22850;-60
2021/01/30 06:12:47;;;;;;;60.10;22.40;;;;;;;-5.90;72.26;97880.77;128301;1108;25166;-60
2021/01/30 06:15:16;;;;;;;84.40;36.10;;;;;;;-5.88;72.92;97879.53;128159;1107;24301;-63
2021/01/30 06:17:45;;;;;;;76.90;35.60;;;;;;;-5.82;72.86;97885.90;128321;1108;23722;-60
2021/01/30 06:20:25;;;;;;;61.93;29.63;;;;;;;-5.76;73.06;97882.45;128129;1107;23201;-61
2021/01/30 06:23:02;;;;;;;55.17;25.43;;;;;;;-5.76;73.51;97883.27;128313;1108;22831;-61
2021/01/30 06:25:31;;;;;;;40.13;18.90;;;;;;;-5.70;74.18;97884.34;128162;1108;23014;-62
2021/01/30 06:28:08;;;;;;;34.73;17.90;;;;;;;-5.62;74.23;97886.83;128338;1109;23045;-63
2021/01/30 06:30:38;;;;;;;20.35;10.58;;;;;;;-5.52;74.22;97883.84;128204;1108;22873;-63
2021/01/30 06:33:28;;;;;;;28.93;15.30;;;;;;;-5.44;76.08;97876.52;128333;1107;23519;-64
2021/01/30 06:36:06;;;;;;;30.93;14.90;;;;;;;-5.34;76.20;97869.00;126993;1108;23015;-63
2021/01/30 06:38:37;;;;;;;;;;;;;;;-5.24;76.28;97873.96;124303;1108;23220;-62
2021/01/30 06:41:05;;;;;;;106.27;41.97;;;;;;;-5.13;75.33;97877.88;128129;1107;21371;-63
2021/01/30 06:43:35;;;;;;;57.43;24.50;;;;;;;-5.05;75.95;97875.85;128230;1109;23013;-64
2021/01/30 06:46:12;;;;;;;56.60;25.77;;;;;;;-4.99;76.19;97871.59;128152;1108;22924;-63
2021/01/30 06:48:44;;;;;;;40.83;18.15;;;;;;;-4.92;76.30;97864.48;128281;1107;24160;-63
2021/01/30 06:51:28;;;;;;;112.00;45.43;;;;;;;-4.84;75.47;97855.49;128120;1107;27157;-63
2021/01/30 06:54:21;;;;;;;170.60;68.03;;;;;;;-4.80;75.22;97854.08;128233;1108;23158;-60
2021/01/30 06:57:19;;;;;;;159.87;66.87;;;;;;;-4.78;75.81;97855.52;128080;1108;24262;-62
2021/01/30 06:59:56;;;;;;;98.77;45.50;;;;;;;-4.77;75.34;97849.19;128305;1108;22896;-63
2021/01/30 07:02:32;;;;;;;78.07;36.73;;;;;;;-4.74;74.64;97850.59;128193;1107;22984;-63
2021/01/30 07:05:05;;;;;;;55.00;24.83;;;;;;;-4.74;75.51;97843.45;128265;1108;22866;-62
2021/01/30 07:07:48;;;;;;;49.98;23.57;;;;;;;-4.72;75.05;97849.39;128158;1108;22830;-62
2021/01/30 07:10:39;;;;;;;51.13;26.03;;;;;;;-4.70;75.89;97844.69;128277;1107;22966;-63
2021/01/30 07:13:51;;;;;;;42.73;20.67;;;;;;;-4.67;75.22;97843.48;128186;1107;24903;-62
2021/01/30 07:16:52;;;;;;;53.80;25.70;;;;;;;-4.66;76.01;97837.96;128226;1111;23749;-62
2021/01/30 07:19:47;;;;;;;67.27;33.30;;;;;;;-4.62;75.05;97833.07;128164;1109;22899;-62
2021/01/30 07:22:20;;;;;;;48.83;24.97;;;;;;;-4.59;75.77;97845.11;128109;1111;23093;-62
2021/01/30 07:24:49;;;;;;;47.63;26.30;;;;;;;-4.67;75.63;97830.19;128190;1109;23642;-62
2021/01/30 07:27:47;;;;;;;44.53;25.60;;;;;;;-4.54;74.92;97850.64;128181;1111;22923;-62
2021/01/30 07:30:16;;;;;;;39.50;21.27;;;;;;;-4.49;75.34;97845.55;128148;1110;23815;-62
2021/01/30 07:33:18;;;;;;;46.07;23.37;;;;;;;-4.46;74.97;97845.11;128118;1111;22979;-63
2021/01/30 07:36:05;;;;;;;41.77;23.77;;;;;;;-4.43;75.29;97836.73;128216;1112;23968;-63
2021/01/30 07:38:44;;;;;;;;;;;;;;;-4.41;76.45;97842.67;128093;1112;23491;-62
2021/01/30 07:41:25;;;;;;;42.40;20.67;;;;;;;-4.37;75.13;97849.22;128223;1111;21359;-63
2021/01/30 07:44:00;;;;;;;44.17;22.13;;;;;;;-4.33;75.57;97847.80;128134;1112;22939;-58
2021/01/30 07:46:34;;;;;;;40.13;21.93;;;;;;;-4.30;76.47;97850.03;128005;1112;22939;-62
2021/01/30 07:49:06;;;;;;;34.90;19.10;;;;;;;-4.25;75.51;97846.77;128023;1112;23272;-60
2021/01/30 07:51:45;;;;;;;35.90;17.90;;;;;;;-4.21;76.22;97855.98;128151;1111;23791;-62
2021/01/30 07:54:13;;;;;;;171.37;48.67;;;;;;;-4.17;76.59;97851.86;128115;1111;22874;-59
2021/01/30 07:56:56;;;;;;;58.33;23.83;;;;;;;-4.09;75.69;97862.31;128253;1111;24826;-60
2021/01/30 07:59:41;;;;;;;67.70;26.57;;;;;;;-4.01;76.38;97856.77;128112;1110;22934;-61
2021/01/30 08:02:30;;;;;;;125.27;41.60;;;;;;;-3.92;75.84;97864.34;128294;1110;23678;-62
2021/01/30 08:05:36;;;;;;;64.53;25.00;;;;;;;-3.85;76.43;97864.32;128160;1110;23883;-62
2021/01/30 08:08:09;;;;;;;26.13;15.40;;;;;;;-3.76;75.61;97873.73;128315;1111;22852;-61
2021/01/30 08:11:17;;;;;;;26.60;13.77;;;;;;;-3.72;75.92;97864.30;128149;1110;23016;-62
2021/01/30 08:14:03;;;;;;;40.30;15.20;;;;;;;-3.64;76.15;97863.27;128357;1108;22865;-63
2021/01/30 08:16:33;;;;;;;48.03;20.60;;;;;;;-3.57;75.55;97858.73;128232;1107;22883;-62
2021/01/30 08:19:04;;;;;;;85.70;31.13;;;;;;;-3.50;75.80;97856.07;128403;1107;22850;-62
2021/01/30 08:21:42;;;;;;;56.37;23.53;;;;;;;-3.46;75.19;97851.97;128244;1108;22900;-62
2021/01/30 08:24:47;;;;;;;38.63;20.90;;;;;;;-3.44;75.43;97850.70;128385;1108;23183;-62
2021/01/30 08:27:32;;;;;;;17.57;10.10;;;;;;;-3.39;75.16;97848.25;128300;1109;23391;-62
2021/01/30 08:30:02;;;;;;;19.27;10.73;;;;;;;-3.36;74.84;97850.49;128146;1109;23735;-62
2021/01/30 08:32:32;;;;;;;25.67;13.20;;;;;;;-3.32;74.16;97848.23;128227;1109;22905;-62
2021/01/30 08:35:21;;;;;;;23.63;11.47;;;;;;;-3.30;74.06;97846.97;128176;1109;23014;-62
2021/01/30 08:37:58;;;;;;;19.60;11.20;;;;;;;-3.26;74.63;97860.69;128266;1109;23051;-62
2021/01/30 08:40:44;;;;;;;;;;;;;;;-3.21;74.31;97845.72;128214;1109;22896;-63
2021/01/30 08:43:38;;;;;;;20.30;10.60;;;;;;;-3.16;74.31;97853.06;128286;1109;21364;-62
2021/01/30 08:46:33;;;;;;;26.07;12.57;;;;;;;-3.10;74.10;97849.56;126683;1109;23108;-63
2021/01/30 08:49:13;;;;;;;18.70;10.20;;;;;;;-3.07;74.38;97851.81;128266;1109;23466;-61
2021/01/30 08:51:48;;;;;;;19.57;10.23;;;;;;;-3.07;73.16;97851.81;128252;1109;22974;-62
2021/01/30 08:54:38;;;;;;;19.53;9.40;;;;;;;-3.08;73.97;97852.02;128291;1109;23001;-62
2021/01/30 08:57:27;;;;;;;21.97;12.13;;;;;;;-3.09;73.27;97855.70;128184;1109;22901;-61
2021/01/30 08:59:55;;;;;;;22.57;10.63;;;;;;;-3.06;74.19;97841.97;128339;1110;23394;-62
2021/01/30 09:02:29;;;;;;;20.80;11.13;;;;;;;-3.02;74.09;97845.83;128239;1108;22831;-62
2021/01/30 09:04:59;;;;;;;20.60;11.00;;;;;;;-2.98;73.74;97849.70;128300;1107;22974;-62
2021/01/30 09:07:55;;;;;;;25.53;12.73;;;;;;;-2.95;74.19;97846.63;128230;1108;22811;-62
2021/01/30 09:10:25;;;;;;;21.63;12.83;;;;;;;-2.90;73.97;97842.30;128306;1108;22855;-61
2021/01/30 09:13:01;;;;;;;25.43;14.13;;;;;;;-2.86;74.46;97837.34;128201;1108;23000;-61
2021/01/30 09:15:38;;;;;;;27.03;12.57;;;;;;;-2.85;73.85;97837.13;127840;1108;22883;-61
2021/01/30 09:18:31;;;;;;;23.42;11.12;;;;;;;-2.84;74.37;97840.61;128214;1108;23693;-64
2021/01/30 09:21:09;;;;;;;18.90;11.40;;;;;;;-2.85;74.47;97831.80;128360;1108;23510;-62
2021/01/30 09:23:55;;;;;;;21.42;11.63;;;;;;;-2.86;74.26;97834.67;128187;1107;22848;-62
2021/01/30 09:26:38;;;;;;;20.90;11.67;;;;;;;-2.88;75.00;97834.06;128345;1108;22834;-62
2021/01/30 09:29:05;;;;;;;21.87;11.43;;;;;;;-2.92;74.62;97831.03;128181;1107;22853;-62
2021/01/30 09:31:32;;;;;;;22.83;13.30;;;;;;;-2.94;74.48;97829.61;128327;1108;23426;-62
2021/01/30 09:34:16;;;;;;;27.07;14.83;;;;;;;-2.97;74.93;97824.70;128141;1108;22975;-62
2021/01/30 09:36:45;;;;;;;23.47;12.53;;;;;;;-3.00;75.31;97819.80;128271;1108;22970;-62
2021/01/30 09:39:29;;;;;;;27.20;14.23;;;;;;;-3.02;75.23;97824.52;128211;1107;22965;-62
2021/01/30 09:42:08;;;;;;;25.60;14.00;;;;;;;-3.04;75.29;97818.61;128222;1107;22851;-63
2021/01/30 09:44:36;;;;;;;23.80;13.27;;;;;;;-3.07;75.13;97808.38;128249;1108;22848;-62
2021/01/30 09:47:15;;;;;;;27.20;13.70;;;;;;;-3.12;75.43;97801.01;128306;1108;22923;-62
2021/01/30 09:49:48;;;;;;;27.60;13.13;;;;;;;-3.21;75.31;97800.45;128234;1107;24605;-63
2021/01/30 09:52:15;;;;;;;21.87;11.27;;;;;;;-3.28;75.32;97798.83;128319;1107;23409;-63
2021/01/30 09:54:43;;;;;;;17.43;10.80;;;;;;;-3.40;75.36;97790.70;128205;1107;22833;-63
2021/01/30 09:57:16;;;;;;;17.63;10.50;;;;;;;-3.46;76.56;97790.75;128340;1108;22947;-62
2021/01/30 09:59:43;;;;;;;16.33;10.30;;;;;;;-3.50;76.79;97790.34;128255;1107;23756;-63
2021/01/30 10:02:27;;;;;;;19.70;11.30;;;;;;;-3.49;77.00;97783.99;128348;1107;23631;-62
2021/01/30 10:05:05;;;;;;;19.37;11.83;;;;;;;-3.51;77.13;97780.72;128260;1108;23010;-62
2021/01/30 10:07:33;;;;;;;22.40;10.90;;;;;;;-3.54;77.27;97780.31;128267;1107;22986;-61
2021/01/30 10:10:01;;;;;;;16.83;10.27;;;;;;;-3.54;77.25;97772.33;128182;1108;25332;-62
2021/01/30 10:12:32;;;;;;;24.37;13.67;;;;;;;-3.59;77.51;97775.61;128295;1108;23568;-63
2021/01/30 10:15:00;;;;;;;21.93;11.73;;;;;;;-3.64;77.62;97776.27;128192;1108;22838;-63
2021/01/30 10:17:41;;;;;;;17.73;11.30;;;;;;;-3.67;76.79;97771.36;128256;1107;22851;-61
2021/01/30 10:20:11;;;;;;;21.70;11.67;;;;;;;-3.72;78.16;97763.18;128157;1108;22894;-62
2021/01/30 10:22:40;;;;;;;19.90;10.20;;;;;;;-3.75;77.34;97757.48;128310;1108;22850;-63
2021/01/30 10:25:25;;;;;;;18.97;10.30;;;;;;;-3.80;78.18;97754.63;128210;1109;23044;-62
2021/01/30 10:28:11;;;;;;;17.10;10.30;;;;;;;-3.83;78.40;97749.72;128322;1107;24802;-63
2021/01/30 10:30:39;;;;;;;18.40;10.00;;;;;;;-3.86;77.91;97755.45;128222;1107;23369;-63
2021/01/30 10:33:09;;;;;;;20.17;10.67;;;;;;;-3.89;78.03;97740.72;128352;1108;22920;-63
2021/01/30 10:35:40;;;;;;;17.30;10.20;;;;;;;-3.88;78.15;97746.86;128181;1109;22898;-63
2021/01/30 10:38:10;;;;;;;18.07;10.10;;;;;;;-3.90;78.36;97738.30;128277;1108;22951;-63
2021/01/30 10:40:49;;;;;;;21.03;10.50;;;;;;;-3.87;78.54;97737.86;128168;1107;22857;-63
2021/01/30 10:43:36;;;;;;;21.03;11.30;;;;;;;-3.83;78.72;97733.76;128347;1108;22877;-63
2021/01/30 10:46:06;;;;;;;22.20;11.83;;;;;;;-3.80;79.63;97728.84;128240;1108;23011;-63
2021/01/30 10:48:37;;;;;;;20.87;12.13;;;;;;;-3.75;79.67;97728.22;128322;1108;23034;-63
2021/01/30 10:51:24;;;;;;;23.00;12.40;;;;;;;-3.72;79.77;97717.13;128200;1108;22942;-63
2021/01/30 10:54:18;;;;;;;28.77;14.83;;;;;;;-3.67;79.98;97717.32;128326;1109;22895;-63
2021/01/30 10:57:19;;;;;;;28.27;14.60;;;;;;;-3.69;80.38;97706.88;128153;1107;23003;-63
2021/01/30 10:59:55;;;;;;;25.50;14.67;;;;;;;-3.67;79.76;97699.51;128349;1107;23770;-64
2021/01/30 11:02:31;;;;;;;38.10;17.87;;;;;;;-3.65;79.55;97702.78;128220;1108;23022;-63
2021/01/30 11:05:20;;;;;;;32.03;17.05;;;;;;;-3.67;80.39;97691.53;128322;1109;23026;-63
2021/01/30 11:07:49;;;;;;;30.07;15.17;;;;;;;-3.65;80.95;97689.48;128266;1107;22898;-63
2021/01/30 11:10:26;;;;;;;25.70;15.10;;;;;;;-3.61;80.00;97689.88;128308;1107;22949;-64
2021/01/30 11:13:09;;;;;;;30.97;17.43;;;;;;;-3.58;80.41;97679.59;128198;1107;23719;-63
2021/01/30 11:15:41;;;;;;;21.33;12.93;;;;;;;-3.56;80.72;97672.22;128313;1109;22834;-63
2021/01/30 11:18:27;;;;;;;22.40;12.03;;;;;;;-3.58;80.65;97668.95;128160;1108;22967;-63
2021/01/30 11:20:57;;;;;;;16.47;10.57;;;;;;;-3.58;80.00;97665.47;128292;1107;22883;-63
2021/01/30 11:23:42;;;;;;;21.27;11.43;;;;;;;-3.58;80.80;97649.50;128131;1108;22911;-64
2021/01/30 11:26:12;;;;;;;25.33;11.43;;;;;;;-3.53;80.94;97648.87;126693;1108;24284;-62
2021/01/30 11:28:40;;;;;;;27.03;14.27;;;;;;;-3.49;80.87;97636.77;128247;1109;22868;-63
2021/01/30 11:31:08;;;;;;;29.57;15.10;;;;;;;-3.49;80.96;97634.92;128314;1107;23092;-62
2021/01/30 11:33:35;;;;;;;27.25;14.60;;;;;;;-3.45;80.99;97624.64;128209;1108;22967;-63
2021/01/30 11:36:04;;;;;;;27.63;15.27;;;;;;;-3.41;80.64;97623.19;128287;1108;22812;-63
2021/01/30 11:38:31;;;;;;;27.13;16.70;;;;;;;-3.42;80.41;97619.70;128166;1107;22994;-63
2021/01/30 11:40:59;;;;;;;32.17;15.17;;;;;;;-3.42;80.29;97616.23;128260;1108;22882;-63
2021/01/30 11:43:27;;;;;;;31.53;16.00;;;;;;;-3.43;81.00;97610.09;128168;1107;22879;-63
2021/01/30 11:45:55;;;;;;;30.83;15.57;;;;;;;-3.42;80.88;97606.40;128300;1108;22946;-63
2021/01/30 11:48:23;;;;;;;38.70;17.27;;;;;;;-3.42;80.73;97602.92;128187;1107;22917;-63
2021/01/30 11:50:51;;;;;;;25.37;13.20;;;;;;;-3.43;80.51;97598.63;128261;1108;22852;-63
2021/01/30 11:53:24;;;;;;;25.47;11.53;;;;;;;-3.46;80.35;97591.88;128245;1107;22914;-63